createdAt,value
2023-04-16T00:00:26.349Z,5.73
2023-04-16T00:04:29.452Z,5.71
2023-04-16T00:08:32.172Z,5.72
2023-04-16T00:12:36.560Z,5.69
2023-04-16T00:16:39.581Z,5.68
2023-04-16T00:20:42.304Z,5.66
2023-04-16T00:24:44.909Z,5.66
2023-04-16T00:28:49.116Z,5.66
2023-04-16T00:32:51.737Z,5.66
2023-04-16T00:36:54.392Z,5.65
2023-04-16T00:40:58.681Z,5.63
2023-04-16T00:45:02.628Z,5.66
2023-04-16T00:49:05.588Z,5.65
2023-04-16T00:53:08.377Z,5.66
2023-04-16T00:57:11.245Z,5.66
2023-04-16T01:01:15.499Z,5.69
2023-04-16T01:05:18.240Z,5.67
2023-04-16T01:09:20.871Z,5.67
2023-04-16T01:13:23.489Z,5.68
2023-04-16T01:17:27.556Z,5.70
2023-04-16T01:21:31.514Z,5.74
2023-04-16T01:25:34.147Z,5.74
2023-04-16T01:29:37.463Z,5.75
2023-04-16T01:33:40.081Z,5.73
2023-04-16T01:37:44.064Z,5.75
2023-04-16T01:41:46.752Z,5.76
2023-04-16T01:45:49.370Z,5.74
2023-04-16T01:49:52.383Z,5.78
2023-04-16T01:53:58.275Z,5.79
2023-04-16T01:58:00.944Z,5.75
2023-04-16T02:02:08.431Z,5.72
2023-04-16T02:06:11.269Z,5.75
2023-04-16T02:10:15.336Z,5.73
2023-04-16T02:14:17.932Z,5.73
2023-04-16T02:18:20.643Z,5.72
2023-04-16T02:22:23.312Z,5.72
2023-04-16T02:26:27.265Z,5.71
2023-04-16T02:30:29.861Z,5.67
2023-04-16T02:34:33.656Z,5.68
2023-04-16T02:38:37.476Z,5.66
2023-04-16T02:42:41.446Z,5.68
2023-04-16T02:46:44.062Z,5.64
2023-04-16T02:50:46.642Z,5.64
2023-04-16T02:54:49.484Z,5.66
2023-04-16T02:58:53.686Z,5.65
2023-04-16T03:02:56.433Z,5.65
2023-04-16T03:06:59.402Z,5.64
2023-04-16T03:11:02.068Z,5.64
2023-04-16T03:15:07.126Z,5.63
2023-04-16T03:19:10.002Z,5.62
2023-04-16T03:23:12.973Z,5.64
2023-04-16T03:27:15.558Z,5.65
2023-04-16T03:31:19.558Z,5.64
2023-04-16T03:35:22.171Z,5.64
2023-04-16T03:39:24.870Z,5.62
2023-04-16T03:43:27.472Z,5.66
2023-04-16T03:47:31.511Z,5.61
2023-04-16T03:51:34.195Z,5.57
2023-04-16T03:55:36.932Z,5.53
2023-04-16T03:59:39.557Z,5.53
2023-04-16T04:03:43.712Z,5.52
2023-04-16T04:07:46.527Z,5.48
2023-04-16T04:11:49.142Z,5.47
2023-04-16T04:15:52.086Z,5.43
2023-04-16T04:20:01.297Z,5.42
2023-04-16T04:24:04.678Z,5.46
2023-04-16T04:28:07.318Z,5.44
2023-04-16T04:32:09.951Z,5.42
2023-04-16T04:36:13.977Z,5.44
2023-04-16T04:40:16.830Z,5.43
2023-04-16T04:44:19.445Z,5.46
2023-04-16T04:48:26.454Z,5.53
2023-04-16T04:52:30.414Z,5.54
2023-04-16T04:56:33.048Z,5.61
2023-04-16T05:00:36.847Z,5.58
2023-04-16T05:04:39.527Z,5.65
2023-04-16T05:08:43.503Z,5.70
2023-04-16T05:12:48.926Z,5.72
2023-04-16T05:16:51.795Z,5.77
2023-04-16T05:20:54.468Z,5.78
2023-04-16T05:24:58.456Z,5.82
2023-04-16T05:29:01.055Z,6.11
2023-04-16T05:33:03.789Z,6.23
2023-04-16T05:37:06.580Z,6.30
2023-04-16T05:41:10.653Z,6.22
2023-04-16T05:45:13.548Z,6.10
2023-04-16T05:49:16.401Z,6.01
2023-04-16T05:53:19.962Z,5.96
2023-04-16T05:57:23.941Z,6.01
2023-04-16T06:01:26.586Z,6.08
2023-04-16T06:05:29.866Z,6.10
2023-04-16T06:09:32.513Z,6.22
2023-04-16T06:13:36.750Z,6.17
2023-04-16T06:17:39.608Z,6.30
2023-04-16T06:21:42.261Z,6.41
2023-04-16T06:25:44.913Z,6.35
2023-04-16T06:29:49.352Z,6.45
2023-04-16T06:33:51.990Z,6.71
2023-04-16T06:37:54.621Z,6.76
2023-04-16T06:41:57.522Z,6.92
2023-04-16T06:46:01.722Z,7.04
2023-04-16T06:50:04.562Z,7.12
2023-04-16T06:54:07.220Z,7.32
2023-04-16T06:58:09.860Z,7.53
2023-04-16T07:02:13.893Z,7.63
2023-04-16T07:06:16.515Z,7.67
2023-04-16T07:10:19.140Z,7.69
2023-04-16T07:14:21.870Z,7.78
2023-04-16T07:18:25.927Z,7.85
2023-04-16T07:22:28.591Z,7.88
2023-04-16T07:26:31.259Z,7.86
2023-04-16T07:30:35.677Z,7.78
2023-04-16T07:34:39.690Z,7.73
2023-04-16T07:38:42.328Z,7.69
2023-04-16T07:42:45.553Z,7.73
2023-04-16T07:46:48.237Z,7.81
2023-04-16T07:50:52.318Z,7.95
2023-04-16T07:54:54.938Z,7.96
2023-04-16T07:59:02.902Z,8.01
2023-04-16T08:03:11.109Z,8.10
2023-04-16T08:07:15.532Z,8.00
2023-04-16T08:11:18.164Z,7.97
2023-04-16T08:15:21.065Z,7.88
2023-04-16T08:19:23.724Z,7.88
2023-04-16T08:23:27.771Z,7.92
2023-04-16T08:27:30.414Z,7.90
2023-04-16T08:31:33.817Z,7.87
2023-04-16T08:35:36.503Z,7.77
2023-04-16T08:39:40.551Z,7.77
2023-04-16T08:43:46.426Z,7.81
2023-04-16T08:47:50.386Z,7.79
2023-04-16T08:51:54.300Z,7.86
2023-04-16T08:56:03.686Z,7.87
2023-04-16T09:00:08.903Z,7.97
2023-04-16T09:04:12.206Z,8.08
2023-04-16T09:08:15.083Z,8.20
2023-04-16T09:12:19.112Z,8.24
2023-04-16T09:16:22.227Z,8.33
2023-04-16T09:20:24.898Z,8.35
2023-04-16T09:24:27.870Z,8.45
2023-04-16T09:28:42.061Z,8.58
2023-04-16T09:32:44.723Z,8.59
2023-04-16T09:36:47.634Z,8.52
2023-04-16T09:41:07.736Z,8.61
2023-04-16T09:45:13.251Z,8.74
2023-04-16T09:49:19.260Z,9.05
2023-04-16T09:53:25.732Z,8.99
2023-04-16T09:57:28.443Z,9.14
2023-04-16T10:01:33.063Z,9.36
2023-04-16T10:05:35.794Z,9.58
2023-04-16T10:09:39.099Z,9.74
2023-04-16T10:13:41.758Z,9.98
2023-04-16T10:17:46.539Z,10.21
2023-04-16T10:21:49.371Z,10.34
2023-04-16T10:25:54.158Z,10.51
2023-04-16T10:29:58.468Z,10.55
2023-04-16T10:34:03.476Z,10.47
2023-04-16T10:38:25.317Z,10.27
2023-04-16T10:42:28.459Z,10.29
2023-04-16T10:46:34.535Z,10.37
2023-04-16T10:50:39.709Z,10.49
2023-04-16T10:54:42.419Z,10.28
2023-04-16T10:58:45.033Z,10.37
2023-04-16T11:02:47.788Z,10.48
2023-04-16T11:07:04.070Z,10.55
2023-04-16T11:11:07.227Z,10.67
2023-04-16T11:15:11.833Z,10.93
2023-04-16T11:19:18.322Z,11.19
2023-04-16T11:23:22.426Z,11.34
2023-04-16T11:27:25.558Z,11.55
2023-04-16T11:31:28.400Z,11.59
2023-04-16T11:35:31.209Z,11.61
2023-04-16T11:39:35.163Z,11.64
2023-04-16T11:43:38.217Z,11.68
2023-04-16T11:47:46.029Z,11.74
2023-04-16T11:51:49.100Z,11.88
2023-04-16T11:55:53.099Z,11.82
2023-04-16T12:00:02.121Z,11.83
2023-04-16T12:04:06.776Z,11.78
2023-04-16T12:08:11.367Z,11.88
2023-04-16T12:12:32.108Z,11.98
2023-04-16T12:16:35.866Z,11.93
2023-04-16T12:20:42.189Z,11.83
2023-04-16T12:24:45.026Z,11.76
2023-04-16T12:28:49.034Z,11.65
2023-04-16T12:32:53.366Z,11.55
2023-04-16T12:37:07.314Z,11.55
2023-04-16T12:41:09.910Z,11.49
2023-04-16T12:45:13.884Z,11.47
2023-04-16T12:49:16.664Z,11.52
2023-04-16T12:53:19.333Z,11.60
2023-04-16T12:57:23.840Z,11.57
2023-04-16T13:01:27.873Z,11.56
2023-04-16T13:05:31.180Z,11.39
2023-04-16T13:09:33.919Z,11.19
2023-04-16T13:13:36.643Z,11.29
2023-04-16T13:17:40.673Z,11.38
2023-04-16T13:21:43.401Z,11.57
2023-04-16T13:25:46.144Z,11.63
2023-04-16T13:29:49.188Z,11.98
2023-04-16T13:33:53.234Z,12.33
2023-04-16T13:37:55.849Z,12.91
2023-04-16T13:41:58.453Z,12.84
2023-04-16T13:46:01.978Z,12.81
2023-04-16T13:50:06.836Z,12.77
2023-04-16T13:54:09.415Z,12.93
2023-04-16T13:58:12.083Z,13.10
2023-04-16T14:02:15.197Z,12.86
2023-04-16T14:06:19.163Z,12.66
2023-04-16T14:10:22.245Z,12.73
2023-04-16T14:14:25.904Z,12.99
2023-04-16T14:18:28.478Z,12.86
2023-04-16T14:22:32.449Z,13.06
2023-04-16T14:26:35.146Z,12.72
2023-04-16T14:30:37.748Z,12.23
2023-04-16T14:34:40.389Z,12.09
2023-04-16T14:38:44.478Z,12.19
2023-04-16T14:42:47.115Z,12.07
2023-04-16T14:46:49.873Z,11.94
2023-04-16T14:50:52.608Z,11.87
2023-04-16T14:54:56.610Z,11.93
2023-04-16T14:58:59.279Z,12.42
2023-04-16T15:03:02.153Z,12.50
2023-04-16T15:07:04.977Z,12.85
2023-04-16T15:11:08.982Z,12.64
2023-04-16T15:15:12.073Z,12.56
2023-04-16T15:19:14.882Z,12.32
2023-04-16T15:23:17.505Z,12.27
2023-04-16T15:27:21.489Z,12.18
2023-04-16T15:31:24.218Z,11.87
2023-04-16T15:35:27.084Z,12.16
2023-04-16T15:39:30.083Z,12.26
2023-04-16T15:43:34.418Z,12.50
2023-04-16T15:47:39.540Z,12.56
2023-04-16T15:51:43.850Z,12.18
2023-04-16T15:55:46.542Z,12.05
2023-04-16T16:00:05.963Z,11.81
2023-04-16T16:04:09.917Z,11.47
2023-04-16T16:08:13.096Z,11.17
2023-04-16T16:12:15.704Z,10.99
2023-04-16T16:16:19.767Z,11.01
2023-04-16T16:20:23.403Z,11.25
2023-04-16T16:24:26.499Z,11.25
2023-04-16T16:28:29.080Z,11.05
2023-04-16T16:32:33.075Z,11.00
2023-04-16T16:36:36.838Z,11.06
2023-04-16T16:40:39.603Z,10.89
2023-04-16T16:44:42.235Z,10.92
2023-04-16T16:48:46.463Z,10.92
2023-04-16T16:52:49.120Z,10.82
2023-04-16T16:56:52.083Z,10.93
2023-04-16T17:00:54.866Z,11.03
2023-04-16T17:04:59.912Z,11.14
2023-04-16T17:09:04.081Z,11.18
2023-04-16T17:13:07.058Z,11.18
2023-04-16T17:17:09.991Z,11.14
2023-04-16T17:21:15.922Z,11.07
2023-04-16T17:25:19.384Z,11.24
2023-04-16T17:29:25.916Z,11.16
2023-04-16T17:33:29.358Z,10.95
2023-04-16T17:37:33.950Z,10.80
2023-04-16T17:41:37.059Z,10.64
2023-04-16T17:45:40.099Z,10.54
2023-04-16T17:49:42.954Z,10.43
2023-04-16T17:53:46.964Z,10.27
2023-04-16T17:57:50.037Z,10.14
2023-04-16T18:01:52.971Z,10.03
2023-04-16T18:05:55.865Z,9.94
2023-04-16T18:09:59.880Z,9.77
2023-04-16T18:14:02.491Z,9.65
2023-04-16T18:18:05.616Z,9.55
2023-04-16T18:22:08.331Z,9.46
2023-04-16T18:26:12.860Z,9.39
2023-04-16T18:30:23.436Z,9.29
2023-04-16T18:34:29.689Z,9.21
2023-04-16T18:38:32.366Z,9.05
2023-04-16T18:42:36.584Z,8.86
2023-04-16T18:46:39.289Z,8.82
2023-04-16T18:50:41.966Z,8.69
2023-04-16T18:54:44.715Z,8.61
2023-04-16T18:58:49.387Z,8.50
2023-04-16T19:02:52.149Z,8.34
2023-04-16T19:06:54.888Z,8.21
2023-04-16T19:10:57.542Z,8.11
2023-04-16T19:15:01.612Z,8.08
2023-04-16T19:19:04.347Z,8.01
2023-04-16T19:23:09.097Z,7.96
2023-04-16T19:27:11.861Z,7.81
2023-04-16T19:31:15.978Z,7.61
2023-04-16T19:35:18.757Z,7.49
2023-04-16T19:39:21.468Z,7.37
2023-04-16T19:43:24.248Z,7.33
2023-04-16T19:47:28.445Z,6.99
2023-04-16T19:51:31.307Z,6.91
2023-04-16T19:55:33.934Z,6.92
2023-04-16T19:59:38.047Z,6.93
2023-04-16T20:03:42.166Z,6.90
2023-04-16T20:07:44.879Z,6.91
2023-04-16T20:11:47.763Z,7.00
2023-04-16T20:15:52.789Z,7.09
2023-04-16T20:20:00.820Z,7.10
2023-04-16T20:24:03.735Z,7.13
2023-04-16T20:28:06.421Z,7.17
2023-04-16T20:32:09.180Z,7.17
2023-04-16T20:36:13.345Z,7.09
2023-04-16T20:40:16.997Z,7.10
2023-04-16T20:44:26.030Z,7.10
2023-04-16T20:48:28.766Z,7.13
2023-04-16T20:52:33.033Z,7.15
2023-04-16T20:56:35.714Z,7.15
2023-04-16T21:00:38.410Z,7.09
2023-04-16T21:04:41.193Z,7.06
2023-04-16T21:08:45.968Z,7.01
2023-04-16T21:12:48.747Z,7.01
2023-04-16T21:16:51.399Z,6.98
2023-04-16T21:20:54.721Z,6.98
2023-04-16T21:24:58.822Z,6.95
2023-04-16T21:29:01.543Z,6.97
2023-04-16T21:33:04.454Z,6.92
2023-04-16T21:37:08.303Z,6.93
2023-04-16T21:41:12.301Z,6.93
2023-04-16T21:45:15.503Z,6.91
2023-04-16T21:49:18.095Z,6.83
2023-04-16T21:53:20.710Z,6.76
2023-04-16T21:57:24.748Z,6.74
2023-04-16T22:01:27.484Z,6.73
2023-04-16T22:05:31.618Z,6.74
2023-04-16T22:09:34.228Z,6.71
2023-04-16T22:13:42.040Z,6.73
2023-04-16T22:17:45.511Z,6.79
2023-04-16T22:21:48.384Z,6.77
2023-04-16T22:25:51.763Z,6.76
2023-04-16T22:29:55.879Z,6.78
2023-04-16T22:33:58.476Z,6.76
2023-04-16T22:38:01.088Z,6.72
2023-04-16T22:42:03.749Z,6.68
2023-04-16T22:46:08.326Z,6.61
2023-04-16T22:50:12.567Z,6.59
2023-04-16T22:54:15.215Z,6.54
2023-04-16T22:58:17.938Z,6.51
2023-04-16T23:02:22.373Z,6.49
2023-04-16T23:06:25.085Z,6.49
2023-04-16T23:10:27.792Z,6.48
2023-04-16T23:14:31.531Z,6.46
2023-04-16T23:18:36.638Z,6.44
2023-04-16T23:22:39.319Z,6.43
2023-04-16T23:26:42.125Z,6.41
2023-04-16T23:30:44.711Z,6.37
2023-04-16T23:34:48.665Z,6.33
2023-04-16T23:38:51.242Z,6.29
2023-04-16T23:42:53.869Z,6.24
2023-04-16T23:46:56.537Z,6.22
2023-04-16T23:51:00.564Z,6.17
2023-04-16T23:55:03.276Z,6.20
2023-04-16T23:59:06.308Z,6.20
